Time;durP1;ratioP1;P1;durP2;ratioP2;P2;SDS_P1;SDS_P2;PMS_P1;PMS_P2;Temp;Humidity;BMP_temperature;BMP_pressure;BME280_temperature;BME280_humidity;BME280_pressure;Samples;Min_cycle;Max_cycle;Signal;HPM_P1;HPM_P2
2022/04/08 00:02:41;;;;;;;11.27;2.17;;;13.30;99.90;;;;;;5111625;28;20513;-65
2022/04/08 00:05:45;;;;;;;14.77;2.10;;;13.30;99.90;;;;;;5111269;28;20043;-65
2022/04/08 00:08:49;;;;;;;7.60;1.73;;;13.30;99.90;;;;;;5111088;28;20042;-64
2022/04/08 00:11:55;;;;;;;12.52;2.15;;;13.30;99.90;;;;;;5111448;28;20054;-65
2022/04/08 00:14:59;;;;;;;7.18;2.05;;;13.40;99.90;;;;;;5110874;28;20046;-65
2022/04/08 00:18:03;;;;;;;5.45;1.60;;;13.30;99.90;;;;;;5111011;28;20038;-65
2022/04/08 00:21:08;;;;;;;7.95;1.83;;;13.30;99.90;;;;;;5111359;28;20050;-65
2022/04/08 00:24:12;;;;;;;7.22;2.15;;;13.20;99.90;;;;;;5110715;28;20220;-66
2022/04/08 00:27:16;;;;;;;9.52;1.58;;;13.20;99.90;;;;;;5109870;28;20042;-65
2022/04/08 00:30:19;;;;;;;8.90;2.05;;;13.20;99.90;;;;;;5110144;28;20043;-65
2022/04/08 00:33:23;;;;;;;4.95;1.70;;;13.20;99.90;;;;;;5110548;28;20406;-65
2022/04/08 00:36:27;;;;;;;9.68;1.95;;;13.20;99.90;;;;;;5110092;28;20050;-65
2022/04/08 00:39:31;;;;;;;6.78;1.83;;;13.20;99.90;;;;;;5110704;28;20390;-65
2022/04/08 00:42:37;;;;;;;13.85;2.05;;;13.20;99.90;;;;;;5110735;28;20051;-65
2022/04/08 00:45:43;;;;;;;7.07;1.88;;;13.30;99.90;;;;;;5110554;28;20050;-65
2022/04/08 00:48:47;;;;;;;5.70;1.88;;;13.30;99.90;;;;;;5110777;28;20050;-65
2022/04/08 00:51:51;;;;;;;8.32;2.08;;;13.30;99.90;;;;;;5110250;28;20059;-64
2022/04/08 00:54:56;;;;;;;6.65;2.17;;;13.30;99.90;;;;;;5110680;28;20046;-64
2022/04/08 00:58:04;;;;;;;10.35;2.10;;;13.50;99.90;;;;;;5109698;28;20038;-65
2022/04/08 01:01:08;;;;;;;11.65;1.83;;;13.50;99.90;;;;;;5110602;28;20042;-65
2022/04/08 01:04:12;;;;;;;7.57;2.00;;;13.50;99.90;;;;;;5110463;28;20090;-64
2022/04/08 01:07:16;;;;;;;7.93;1.88;;;13.50;99.90;;;;;;5109744;28;20611;-65
2022/04/08 01:10:21;;;;;;;6.18;1.77;;;13.50;99.90;;;;;;5110387;28;20394;-64
2022/04/08 01:13:25;;;;;;;15.02;2.10;;;13.50;99.90;;;;;;5110422;28;20051;-64
2022/04/08 01:16:29;;;;;;;11.43;3.08;;;13.50;99.90;;;;;;5109967;28;20039;-65
2022/04/08 01:19:33;;;;;;;9.35;1.80;;;13.50;99.90;;;;;;5110404;28;20042;-65
2022/04/08 01:22:37;;;;;;;8.00;1.98;;;13.50;99.90;;;;;;5110611;28;20050;-65
2022/04/08 01:25:41;;;;;;;8.98;1.50;;;13.50;99.90;;;;;;5110372;28;20046;-65
2022/04/08 01:28:45;;;;;;;9.00;1.98;;;13.50;99.90;;;;;;5109882;28;20039;-65
2022/04/08 01:31:49;;;;;;;14.90;3.22;;;13.50;99.90;;;;;;5109999;28;20035;-64
2022/04/08 01:34:53;;;;;;;10.48;1.90;;;13.40;99.90;;;;;;5110354;28;20070;-64
2022/04/08 01:37:58;;;;;;;9.75;1.88;;;13.40;99.90;;;;;;5109279;28;20546;-65
2022/04/08 01:41:02;;;;;;;11.20;2.15;;;13.40;99.90;;;;;;5110170;28;20070;-65
2022/04/08 01:44:06;;;;;;;5.05;1.83;;;13.40;99.90;;;;;;5109926;28;20050;-65
2022/04/08 01:47:10;;;;;;;14.13;2.47;;;13.40;99.90;;;;;;5109376;28;20406;-65
2022/04/08 01:50:18;;;;;;;11.93;2.88;;;13.40;99.90;;;;;;5110041;28;20493;-64
2022/04/08 01:53:22;;;;;;;7.28;1.80;;;13.40;99.90;;;;;;5111621;28;20390;-65
2022/04/08 01:56:27;;;;;;;10.93;2.15;;;13.40;99.90;;;;;;5113296;28;20058;-65
2022/04/08 01:59:30;;;;;;;14.98;2.60;;;13.50;99.90;;;;;;5113755;28;20386;-65
2022/04/08 02:02:35;;;;;;;11.65;2.08;;;13.50;99.90;;;;;;5114165;28;20047;-65
2022/04/08 02:05:39;;;;;;;7.70;1.95;;;13.40;99.90;;;;;;5113681;28;20047;-65
2022/04/08 02:08:43;;;;;;;10.65;2.28;;;13.40;99.90;;;;;;5113843;28;20030;-65
2022/04/08 02:11:47;;;;;;;9.45;2.50;;;13.40;99.90;;;;;;5113709;28;20039;-65
2022/04/08 02:14:51;;;;;;;14.63;2.70;;;13.30;99.90;;;;;;5113680;28;20035;-65
2022/04/08 02:17:56;;;;;;;7.30;2.38;;;13.30;99.90;;;;;;5112989;28;20039;-65
2022/04/08 02:21:00;;;;;;;14.75;2.78;;;13.30;99.90;;;;;;5113762;28;20398;-65
2022/04/08 02:24:05;;;;;;;13.57;3.58;;;13.20;99.90;;;;;;5113681;28;20489;-65
2022/04/08 02:27:09;;;;;;;12.10;3.78;;;13.30;99.90;;;;;;5113066;28;20054;-65
2022/04/08 02:30:13;;;;;;;9.82;3.05;;;13.30;99.90;;;;;;5113524;28;20390;-65
2022/04/08 02:33:17;;;;;;;15.18;2.85;;;13.30;99.90;;;;;;5113063;28;20031;-65
2022/04/08 02:36:21;;;;;;;10.23;2.83;;;13.30;99.90;;;;;;5112448;28;20055;-64
2022/04/08 02:39:25;;;;;;;14.23;3.13;;;13.20;99.90;;;;;;5113132;28;20043;-64
2022/04/08 02:42:32;;;;;;;15.13;2.63;;;13.30;99.90;;;;;;5112876;28;20078;-65
2022/04/08 02:45:36;;;;;;;12.93;2.65;;;13.30;99.90;;;;;;5113076;28;20060;-65
2022/04/08 02:48:40;;;;;;;15.27;2.88;;;13.30;99.90;;;;;;5112366;28;20039;-64
2022/04/08 02:51:44;;;;;;;13.35;2.78;;;13.40;99.90;;;;;;5113083;28;20070;-65
2022/04/08 02:54:48;;;;;;;16.05;2.90;;;13.30;99.90;;;;;;5112728;28;20059;-65
2022/04/08 02:57:53;;;;;;;9.05;3.03;;;13.30;99.90;;;;;;5111658;28;20059;-64
2022/04/08 03:01:00;;;;;;;18.42;3.67;;;13.30;99.90;;;;;;5112684;28;20066;-65
2022/04/08 03:04:06;;;;;;;11.45;2.72;;;13.30;99.90;;;;;;5112236;28;20046;-65
2022/04/08 03:07:10;;;;;;;16.42;2.85;;;13.20;99.90;;;;;;5111916;28;20075;-65
2022/04/08 03:10:14;;;;;;;11.32;2.60;;;13.30;99.90;;;;;;5112628;28;20308;-65
2022/04/08 03:13:18;;;;;;;16.35;3.10;;;13.30;99.90;;;;;;5112396;28;20038;-65
2022/04/08 03:16:22;;;;;;;12.10;2.85;;;13.40;99.90;;;;;;5111804;28;20489;-65
2022/04/08 03:19:26;;;;;;;12.88;3.10;;;13.30;99.90;;;;;;5112093;28;20520;-65
2022/04/08 03:22:30;;;;;;;11.95;2.55;;;13.40;99.90;;;;;;5112412;28;20046;-65
2022/04/08 03:25:34;;;;;;;10.30;2.75;;;13.40;99.90;;;;;;5112293;28;20067;-65
2022/04/08 03:28:38;;;;;;;17.75;2.53;;;13.40;99.90;;;;;;5112070;28;20042;-65
2022/04/08 03:31:42;;;;;;;16.23;3.08;;;13.40;99.90;;;;;;5112020;28;20046;-65
2022/04/08 03:34:46;;;;;;;21.95;3.47;;;13.40;99.90;;;;;;5111856;28;20038;-65
2022/04/08 03:37:50;;;;;;;13.07;3.00;;;13.40;99.90;;;;;;5111364;28;20039;-65
2022/04/08 03:40:55;;;;;;;15.02;2.95;;;13.40;99.90;;;;;;5112024;28;20508;-65
2022/04/08 03:43:59;;;;;;;12.65;2.78;;;13.40;99.90;;;;;;5111674;28;20129;-65
2022/04/08 03:47:03;;;;;;;19.80;3.55;;;13.40;99.90;;;;;;5111023;28;20055;-65
2022/04/08 03:50:07;;;;;;;16.20;2.80;;;13.30;99.90;;;;;;5111616;28;20043;-65
2022/04/08 03:53:12;;;;;;;12.73;2.83;;;13.30;99.90;;;;;;5111441;28;20038;-65
2022/04/08 03:56:16;;;;;;;16.80;3.72;;;13.30;99.90;;;;;;5110970;28;20058;-65
2022/04/08 03:59:22;;;;;;;11.73;2.72;;;13.30;99.90;;;;;;5111293;28;20055;-65
2022/04/08 04:02:25;;;;;;;16.45;3.20;;;13.30;99.90;;;;;;5111577;28;20493;-65
2022/04/08 04:05:31;;;;;;;19.95;2.83;;;13.30;99.90;;;;;;5111583;28;20046;-65
2022/04/08 04:08:35;;;;;;;11.45;2.47;;;13.40;99.90;;;;;;5111463;28;20051;-65
2022/04/08 04:11:38;;;;;;;13.65;2.60;;;13.40;99.90;;;;;;5111228;28;20047;-65
2022/04/08 04:14:43;;;;;;;15.32;2.60;;;13.50;99.90;;;;;;5111243;28;20050;-65
2022/04/08 04:17:47;;;;;;;13.20;2.50;;;13.40;99.90;;;;;;5110853;28;20046;-65
2022/04/08 04:20:51;;;;;;;14.65;2.97;;;13.30;99.90;;;;;;5110989;28;20109;-65
2022/04/08 04:23:54;;;;;;;17.05;2.65;;;13.30;99.90;;;;;;5111207;28;20043;-65
2022/04/08 04:26:58;;;;;;;12.27;2.95;;;13.30;99.90;;;;;;5110571;28;20051;-65
2022/04/08 04:30:04;;;;;;;11.82;2.45;;;13.30;99.90;;;;;;5110767;28;20493;-65
2022/04/08 04:33:08;;;;;;;10.70;3.15;;;13.30;99.90;;;;;;5110507;28;20118;-65
2022/04/08 04:36:13;;;;;;;13.73;2.65;;;13.40;99.90;;;;;;5109645;28;20042;-65
2022/04/08 04:39:17;;;;;;;8.82;2.95;;;13.50;99.90;;;;;;5110946;28;20050;-65
2022/04/08 04:42:21;;;;;;;8.82;2.00;;;13.60;99.90;;;;;;5110782;28;20402;-65
2022/04/08 04:45:25;;;;;;;6.22;1.70;;;13.60;99.90;;;;;;5110609;28;20030;-65
2022/04/08 04:48:29;;;;;;;8.45;2.20;;;13.50;99.90;;;;;;5109180;28;20386;-65
2022/04/08 04:51:33;;;;;;;10.57;2.30;;;13.50;99.90;;;;;;5110586;28;20398;-65
2022/04/08 04:54:37;;;;;;;11.27;2.40;;;13.50;99.90;;;;;;5110562;28;20042;-65
2022/04/08 04:57:41;;;;;;;7.75;1.83;;;13.60;99.90;;;;;;5109995;28;20054;-65
2022/04/08 05:00:46;;;;;;;9.85;1.73;;;13.70;99.90;;;;;;5110592;28;20494;-64
2022/04/08 05:03:50;;;;;;;9.48;2.30;;;13.60;99.90;;;;;;5110231;28;20046;-65
2022/04/08 05:06:53;;;;;;;14.02;1.88;;;13.60;99.90;;;;;;5110075;28;20544;-65
2022/04/08 05:09:57;;;;;;;12.68;2.20;;;13.60;99.90;;;;;;5110377;28;20047;-65
2022/04/08 05:13:01;;;;;;;22.42;4.13;;;13.60;99.90;;;;;;5110281;28;20481;-64
2022/04/08 05:16:06;;;;;;;12.30;2.70;;;13.50;99.90;;;;;;5110693;28;20039;-64
2022/04/08 05:19:11;;;;;;;10.32;2.17;;;13.30;99.90;;;;;;5111326;28;20038;-64
2022/04/08 05:22:15;;;;;;;12.63;2.08;;;13.20;99.90;;;;;;5109932;28;20043;-65
2022/04/08 05:25:19;;;;;;;13.82;2.70;;;12.90;99.90;;;;;;5110751;28;20282;-65
2022/04/08 05:28:23;;;;;;;8.32;2.67;;;12.90;99.90;;;;;;5111525;28;20046;-64
2022/04/08 05:31:27;;;;;;;7.03;1.90;;;12.90;99.90;;;;;;5115109;28;20042;-64
2022/04/08 05:34:31;;;;;;;9.07;2.33;;;12.90;99.90;;;;;;5114590;28;20063;-65
2022/04/08 05:37:40;;;;;;;10.52;2.08;;;12.90;99.90;;;;;;5113764;28;20051;-64
2022/04/08 05:40:43;;;;;;;10.73;2.13;;;12.90;99.90;;;;;;5114198;28;20043;-65
2022/04/08 05:43:47;;;;;;;9.88;2.20;;;12.80;99.90;;;;;;5114442;28;20051;-65
2022/04/08 05:46:52;;;;;;;12.77;2.00;;;12.70;99.90;;;;;;5113732;28;20064;-66
2022/04/08 05:49:59;;;;;;;8.68;1.92;;;12.90;99.90;;;;;;5114583;28;20042;-64
2022/04/08 05:53:03;;;;;;;13.27;2.10;;;12.90;99.90;;;;;;5113576;28;20069;-65
2022/04/08 05:56:07;;;;;;;9.43;2.08;;;12.90;99.90;;;;;;5093581;28;20051;-64
2022/04/08 05:59:11;;;;;;;10.68;2.35;;;13.00;99.90;;;;;;5094011;28;20047;-65
2022/04/08 06:02:17;;;;;;;16.00;2.33;;;13.00;99.90;;;;;;5103978;28;20059;-64
2022/04/08 06:05:20;;;;;;;9.00;2.08;;;13.00;99.90;;;;;;5109045;28;20038;-65
2022/04/08 06:08:24;;;;;;;9.73;2.75;;;13.00;99.90;;;;;;5110173;28;20043;-65
2022/04/08 06:11:28;;;;;;;10.77;2.85;;;13.10;99.90;;;;;;5107415;28;20042;-65
2022/04/08 06:14:32;;;;;;;11.15;3.88;;;13.10;99.90;;;;;;5107374;28;20039;-65
2022/04/08 06:17:37;;;;;;;12.57;3.92;;;13.10;99.90;;;;;;5108788;28;20051;-65
2022/04/08 06:20:41;;;;;;;11.77;3.97;;;13.10;99.90;;;;;;5109747;28;20109;-65
2022/04/08 06:23:46;;;;;;;13.32;3.95;;;13.20;99.90;;;;;;5109241;28;20039;-64
2022/04/08 06:26:50;;;;;;;7.65;2.28;;;13.20;99.90;;;;;;5111647;28;20047;-65
2022/04/08 06:29:55;;;;;;;6.70;2.42;;;13.30;99.90;;;;;;5101205;28;20047;-65
2022/04/08 06:32:59;;;;;;;8.27;2.28;;;13.40;99.90;;;;;;5107752;28;20035;-65
2022/04/08 06:36:03;;;;;;;7.43;2.40;;;13.40;99.90;;;;;;5108409;28;20394;-65
2022/04/08 06:39:07;;;;;;;5.38;2.50;;;13.50;99.90;;;;;;5104585;28;20026;-64
2022/04/08 06:42:11;;;;;;;11.70;2.72;;;13.60;99.90;;;;;;5108496;28;20039;-64
2022/04/08 06:45:15;;;;;;;19.08;2.30;;;13.20;99.90;;;;;;5110934;28;20389;-64
2022/04/08 06:48:19;;;;;;;11.10;2.78;;;13.10;99.90;;;;;;5096570;28;20497;-65
2022/04/08 06:51:23;;;;;;;8.18;3.05;;;13.40;99.90;;;;;;5102003;28;20035;-66
2022/04/08 06:54:28;;;;;;;8.68;2.15;;;13.50;99.90;;;;;;5102127;28;20055;-64
2022/04/08 06:57:32;;;;;;;6.20;2.10;;;13.30;99.90;;;;;;5109516;28;20055;-65
2022/04/08 07:00:37;;;;;;;17.88;4.63;;;13.40;99.90;;;;;;5100841;28;20663;-64
2022/04/08 07:03:41;;;;;;;10.52;3.58;;;13.70;99.90;;;;;;5104749;28;20055;-65
2022/04/08 07:06:45;;;;;;;5.28;1.90;;;13.60;99.90;;;;;;5109205;28;20046;-65
2022/04/08 07:09:51;;;;;;;7.50;2.13;;;13.50;99.90;;;;;;5106304;28;20038;-65
2022/04/08 07:12:55;;;;;;;7.72;2.17;;;13.50;99.90;;;;;;5109672;28;20082;-65
2022/04/08 07:16:00;;;;;;;8.20;2.20;;;13.70;99.90;;;;;;5107412;28;20043;-64
2022/04/08 07:19:04;;;;;;;8.85;2.90;;;13.70;99.90;;;;;;5108123;28;20058;-65
2022/04/08 07:22:08;;;;;;;6.40;2.33;;;13.50;99.90;;;;;;5107871;28;20043;-65
2022/04/08 07:25:12;;;;;;;6.38;1.88;;;13.30;99.90;;;;;;5107826;28;20038;-64
2022/04/08 07:28:17;;;;;;;12.60;2.90;;;13.60;99.90;;;;;;5100352;28;20051;-65
2022/04/08 07:31:21;;;;;;;13.75;3.75;;;13.90;99.90;;;;;;5109977;28;20063;-65
2022/04/08 07:34:25;;;;;;;8.90;3.40;;;14.20;99.90;;;;;;5102128;28;20576;-65
2022/04/08 07:37:31;;;;;;;8.52;2.40;;;14.10;99.90;;;;;;5101422;28;20046;-66
2022/04/08 07:40:35;;;;;;;8.43;3.30;;;14.40;99.90;;;;;;5108302;28;20042;-65
2022/04/08 07:43:38;;;;;;;12.98;3.80;;;14.40;99.90;;;;;;5101866;28;20050;-65
2022/04/08 07:46:43;;;;;;;10.45;3.10;;;14.20;99.90;;;;;;5105024;28;20059;-65
2022/04/08 07:49:48;;;;;;;13.73;3.50;;;14.30;99.90;;;;;;5099887;28;20043;-65
2022/04/08 07:52:51;;;;;;;16.13;3.63;;;14.20;99.90;;;;;;5107647;28;20505;-65
2022/04/08 07:55:55;;;;;;;18.17;5.22;;;14.50;99.90;;;;;;5104879;28;20050;-65
2022/04/08 07:58:59;;;;;;;24.80;8.18;;;14.70;99.90;;;;;;5103425;28;20482;-65
2022/04/08 08:02:04;;;;;;;11.02;3.58;;;14.80;99.90;;;;;;5107288;28;20054;-65
2022/04/08 08:05:09;;;;;;;12.23;3.50;;;14.50;99.90;;;;;;5109117;28;20110;-65
2022/04/08 08:08:13;;;;;;;12.50;3.92;;;14.60;99.90;;;;;;5108969;28;20046;-66
2022/04/08 08:11:18;;;;;;;7.88;3.08;;;14.90;99.90;;;;;;5101845;28;20051;-65
2022/04/08 08:14:22;;;;;;;13.23;3.38;;;14.60;99.90;;;;;;5107530;28;20031;-65
2022/04/08 08:17:26;;;;;;;16.38;5.60;;;15.00;99.90;;;;;;5102355;28;20232;-65
2022/04/08 08:20:30;;;;;;;11.57;3.83;;;15.20;99.90;;;;;;5106730;28;20365;-65
2022/04/08 08:23:34;;;;;;;12.70;3.72;;;15.10;99.90;;;;;;5105307;28;20039;-65
2022/04/08 08:26:38;;;;;;;11.38;3.97;;;15.00;99.90;;;;;;5104046;28;20054;-65
2022/04/08 08:29:42;;;;;;;11.90;4.93;;;15.30;99.90;;;;;;5099251;28;20071;-65
2022/04/08 08:32:48;;;;;;;9.55;3.65;;;15.40;99.90;;;;;;5107488;28;20043;-65
2022/04/08 08:35:52;;;;;;;9.55;3.08;;;15.60;99.90;;;;;;5099121;28;20043;-65
2022/04/08 08:38:56;;;;;;;12.77;5.18;;;15.60;99.90;;;;;;5108743;28;20046;-65
2022/04/08 08:42:03;;;;;;;9.80;2.90;;;15.70;99.90;;;;;;5108327;28;20066;-65
2022/04/08 08:45:11;;;;;;;8.48;2.75;;;15.50;99.90;;;;;;5097800;28;20043;-65
2022/04/08 08:48:16;;;;;;;14.18;4.53;;;15.00;99.90;;;;;;5102515;28;20027;-65
2022/04/08 08:51:22;;;;;;;13.27;3.28;;;14.90;99.90;;;;;;5099705;28;20035;-65
2022/04/08 08:54:26;;;;;;;11.80;3.25;;;15.00;99.90;;;;;;5107443;28;20942;-64
2022/04/08 08:57:30;;;;;;;11.93;3.65;;;14.60;99.90;;;;;;5100561;28;20042;-65
2022/04/08 09:00:35;;;;;;;12.88;3.10;;;14.30;99.90;;;;;;5103565;28;20501;-65
2022/04/08 09:03:41;;;;;;;10.57;3.60;;;14.20;99.90;;;;;;5101008;28;20481;-65
2022/04/08 09:06:46;;;;;;;12.68;3.72;;;14.60;99.90;;;;;;5097559;28;20054;-65
2022/04/08 09:09:52;;;;;;;12.38;4.20;;;14.90;99.90;;;;;;5099709;28;20043;-65
2022/04/08 09:12:58;;;;;;;16.00;6.40;;;15.00;99.90;;;;;;5101294;28;20063;-65
2022/04/08 09:16:02;;;;;;;13.10;6.03;;;14.80;99.90;;;;;;5102268;28;20881;-65
2022/04/08 09:19:14;;;;;;;12.00;5.45;;;14.90;99.90;;;;;;5104114;28;20047;-65
2022/04/08 09:22:20;;;;;;;12.70;4.72;;;15.20;99.90;;;;;;5104963;28;20054;-64
2022/04/08 09:25:26;;;;;;;17.33;5.72;;;15.20;99.90;;;;;;5099346;28;20363;-65
2022/04/08 09:28:37;;;;;;;19.80;5.65;;;15.00;99.90;;;;;;5105223;28;20047;-66
2022/04/08 09:31:42;;;;;;;17.85;7.38;;;15.10;99.90;;;;;;5100853;28;20047;-65
2022/04/08 09:34:50;;;;;;;16.45;6.85;;;15.20;99.90;;;;;;5102293;28;20050;-65
2022/04/08 09:38:00;;;;;;;13.73;5.93;;;15.00;99.90;;;;;;5101100;28;20046;-73
2022/04/08 09:41:10;;;;;;;18.88;5.50;;;14.90;99.90;;;;;;5107962;28;20059;-73
2022/04/08 09:44:23;;;;;;;13.73;4.78;;;14.80;99.90;;;;;;5101167;28;20034;-72
2022/04/08 09:47:28;;;;;;;14.48;5.32;;;14.60;99.90;;;;;;5101828;28;20062;-74
2022/04/08 09:50:36;;;;;;;12.57;5.05;;;15.10;99.90;;;;;;5104702;28;20031;-73
2022/04/08 09:53:41;;;;;;;18.70;5.22;;;15.20;99.90;;;;;;5105319;28;20536;-73
2022/04/08 09:56:50;;;;;;;20.17;4.85;;;15.70;99.90;;;;;;5097309;28;20592;-73
2022/04/08 09:59:58;;;;;;;20.95;5.93;;;16.50;99.90;;;;;;5107769;28;20035;-73
2022/04/08 10:03:02;;;;;;;10.40;3.70;;;17.50;99.90;;;;;;5101873;28;20035;-73
2022/04/08 10:06:07;;;;;;;13.80;3.72;;;17.40;99.90;;;;;;5099515;28;20031;-73
2022/04/08 10:09:14;;;;;;;15.20;4.57;;;16.80;99.90;;;;;;5102394;28;20059;-73
2022/04/08 10:12:35;;;;;;;14.15;4.57;;;17.30;99.90;;;;;;5106083;28;20034;-73
2022/04/08 10:15:43;;;;;;;9.85;3.47;;;17.20;99.90;;;;;;5108899;28;20054;-73
2022/04/08 10:18:48;;;;;;;11.63;3.03;;;16.90;99.90;;;;;;5112171;28;20398;-65
2022/04/08 10:21:55;;;;;;;9.18;2.55;;;16.90;99.90;;;;;;5104713;28;20395;-73
2022/04/08 10:24:59;;;;;;;10.95;3.38;;;16.90;99.90;;;;;;5102999;28;20057;-65
2022/04/08 10:28:04;;;;;;;11.48;2.38;;;16.70;99.90;;;;;;5108676;28;20042;-65
2022/04/08 10:31:15;;;;;;;11.35;3.17;;;16.70;99.90;;;;;;5112277;28;20034;-65
2022/04/08 10:34:19;;;;;;;13.05;3.63;;;16.40;99.90;;;;;;5108199;28;20046;-73
2022/04/08 10:37:26;;;;;;;14.15;3.60;;;16.30;99.90;;;;;;5110039;28;20038;-65
2022/04/08 10:40:35;;;;;;;11.82;3.28;;;16.20;99.90;;;;;;5105263;28;20050;-73
2022/04/08 10:43:48;;;;;;;13.45;3.17;;;16.30;99.90;;;;;;5106585;28;20378;-66
2022/04/08 10:46:54;;;;;;;12.55;3.15;;;16.30;99.90;;;;;;5107795;28;20034;-65
2022/04/08 10:50:10;;;;;;;12.82;2.85;;;16.50;99.90;;;;;;5111350;28;20051;-73
2022/04/08 10:53:21;;;;;;;12.07;3.33;;;17.10;99.90;;;;;;5105614;28;20035;-65
2022/04/08 10:56:34;;;;;;;11.98;3.35;;;16.80;99.90;;;;;;5099363;28;20047;-65
2022/04/08 10:59:38;;;;;;;13.48;4.47;;;16.90;99.90;;;;;;5100458;28;20063;-66
2022/04/08 11:02:43;;;;;;;15.95;6.97;;;17.30;99.90;;;;;;5102641;28;20043;-65
2022/04/08 11:05:48;;;;;;;16.92;9.00;;;17.10;99.90;;;;;;5106455;28;20473;-65
2022/04/08 11:08:52;;;;;;;12.90;3.50;;;16.70;99.90;;;;;;5102444;28;20498;-66
2022/04/08 11:11:55;;;;;;;14.57;3.97;;;16.80;99.90;;;;;;5102767;28;20054;-65
2022/04/08 11:15:02;;;;;;;9.48;3.00;;;17.10;99.90;;;;;;5094630;28;20051;-66
2022/04/08 11:18:08;;;;;;;9.02;2.85;;;17.70;99.90;;;;;;5109873;28;20039;-65
2022/04/08 11:21:21;;;;;;;10.82;2.80;;;18.50;99.90;;;;;;5102504;28;20055;-66
2022/04/08 11:24:26;;;;;;;11.15;2.92;;;19.60;99.90;;;;;;5109696;28;20050;-65
2022/04/08 11:27:31;;;;;;;12.82;3.20;;;21.10;99.90;;;;;;5101635;28;20050;-66
2022/04/08 11:30:38;;;;;;;12.05;3.22;;;22.00;99.90;;;;;;5099726;28;20043;-66
2022/04/08 11:33:42;;;;;;;7.10;2.95;;;23.50;99.90;;;;;;5102030;28;20051;-66
2022/04/08 11:36:46;;;;;;;13.05;4.35;;;24.40;99.30;;;;;;5097366;28;20047;-67
2022/04/08 11:40:00;;;;;;;11.05;3.63;;;26.40;97.80;;;;;;5093415;28;20043;-67
2022/04/08 11:43:05;;;;;;;10.20;3.90;;;28.50;96.30;;;;;;5092427;28;20055;-66
2022/04/08 11:46:16;;;;;;;12.30;3.97;;;27.40;94.40;;;;;;5105568;28;20406;-65
2022/04/08 11:49:24;;;;;;;16.83;5.57;;;25.80;95.00;;;;;;5110022;28;20051;-66
2022/04/08 11:52:28;;;;;;;10.88;5.10;;;24.10;97.10;;;;;;5098561;28;20493;-66
2022/04/08 11:55:32;;;;;;;13.88;5.25;;;23.30;98.40;;;;;;5103261;28;20113;-66
2022/04/08 11:58:37;;;;;;;14.68;5.32;;;23.00;98.10;;;;;;5106382;28;20051;-67
2022/04/08 12:01:41;;;;;;;9.73;3.72;;;22.90;99.30;;;;;;5099041;28;20046;-66
2022/04/08 12:04:45;;;;;;;9.73;3.47;;;23.10;98.80;;;;;;5101343;28;20121;-66
2022/04/08 12:07:49;;;;;;;8.35;3.05;;;23.10;98.70;;;;;;5101009;28;20054;-66
2022/04/08 12:10:58;;;;;;;10.45;2.88;;;23.00;98.00;;;;;;5100854;28;20039;-66
2022/04/08 12:14:05;;;;;;;7.38;2.80;;;22.90;98.20;;;;;;5110332;28;20031;-66
2022/04/08 12:17:10;;;;;;;11.80;3.67;;;22.60;99.20;;;;;;5109926;28;20034;-66
2022/04/08 12:20:20;;;;;;;6.63;2.33;;;22.30;98.40;;;;;;5111590;28;20394;-66
2022/04/08 12:23:26;;;;;;;11.50;2.80;;;22.10;98.80;;;;;;5092976;28;20039;-66
2022/04/08 12:26:36;;;;;;;10.02;3.22;;;21.80;99.30;;;;;;5107087;28;20042;-66
2022/04/08 12:29:40;;;;;;;8.85;3.13;;;21.90;99.90;;;;;;5106886;28;20418;-73
2022/04/08 12:32:44;;;;;;;9.23;2.63;;;22.20;99.90;;;;;;5108755;28;20031;-73
2022/04/08 12:35:48;;;;;;;11.30;2.80;;;22.60;99.40;;;;;;5107390;28;20044;-73
2022/04/08 12:38:54;;;;;;;8.10;3.00;;;23.20;99.10;;;;;;5108993;28;20046;-73
2022/04/08 12:41:59;;;;;;;8.30;2.53;;;23.90;98.00;;;;;;5103744;28;20609;-66
2022/04/08 12:45:09;;;;;;;16.38;3.40;;;23.70;97.80;;;;;;5098328;28;20057;-73
2022/04/08 12:48:12;;;;;;;7.72;2.83;;;23.40;98.20;;;;;;5104160;28;20039;-72
2022/04/08 12:51:18;;;;;;;7.63;2.13;;;23.10;98.20;;;;;;5107091;28;20043;-66
2022/04/08 12:54:24;;;;;;;9.88;2.13;;;22.90;98.80;;;;;;5107322;28;20387;-66
2022/04/08 12:57:32;;;;;;;7.25;2.45;;;22.80;98.80;;;;;;5106176;28;20039;-66
2022/04/08 13:00:36;;;;;;;6.93;2.72;;;22.70;99.20;;;;;;5101338;28;20042;-66
2022/04/08 13:03:41;;;;;;;9.55;2.83;;;22.90;99.60;;;;;;5108288;28;20117;-66
2022/04/08 13:06:45;;;;;;;6.22;2.10;;;23.10;99.10;;;;;;5105515;28;20039;-73
2022/04/08 13:09:49;;;;;;;7.22;2.10;;;23.50;98.70;;;;;;5109544;28;20094;-66
2022/04/08 13:12:53;;;;;;;6.68;2.22;;;23.60;98.40;;;;;;5103886;28;20288;-66
2022/04/08 13:15:57;;;;;;;6.75;1.88;;;23.80;97.60;;;;;;5099352;28;20058;-66
2022/04/08 13:19:02;;;;;;;6.97;1.83;;;24.10;97.70;;;;;;5106069;28;20050;-73
2022/04/08 13:22:07;;;;;;;5.90;1.60;;;23.50;97.20;;;;;;5103659;28;20050;-73
2022/04/08 13:25:11;;;;;;;6.35;1.95;;;24.50;97.50;;;;;;5108506;28;20042;-73
2022/04/08 13:28:16;;;;;;;9.25;2.30;;;26.10;96.70;;;;;;5099781;28;20635;-73
2022/04/08 13:31:20;;;;;;;4.85;1.90;;;27.40;95.50;;;;;;5110268;28;20046;-72
2022/04/08 13:34:24;;;;;;;7.22;1.75;;;28.20;94.10;;;;;;5105094;28;20362;-73
2022/04/08 13:37:29;;;;;;;5.30;2.03;;;28.50;94.50;;;;;;5110034;28;20047;-65
2022/04/08 13:40:33;;;;;;;9.07;2.97;;;27.90;93.40;;;;;;5112047;28;20046;-73
2022/04/08 13:43:37;;;;;;;10.77;2.95;;;26.40;94.30;;;;;;5108481;28;20445;-74
2022/04/08 13:46:41;;;;;;;6.10;2.00;;;26.70;95.60;;;;;;5108811;28;20474;-65
2022/04/08 13:49:45;;;;;;;7.22;2.25;;;26.50;92.90;;;;;;5110709;28;20382;-65
2022/04/08 13:52:49;;;;;;;7.97;1.65;;;24.50;95.80;;;;;;5113924;28;20042;-74
2022/04/08 13:55:53;;;;;;;10.82;3.95;;;26.00;95.90;;;;;;5113688;28;20051;-74
2022/04/08 13:58:57;;;;;;;9.02;3.05;;;25.60;94.40;;;;;;5112006;28;20402;-74
2022/04/08 14:02:02;;;;;;;7.40;3.13;;;25.30;94.70;;;;;;5112404;28;20509;-73
2022/04/08 14:05:10;;;;;;;10.23;3.90;;;24.60;96.00;;;;;;5114748;28;20046;-66
2022/04/08 14:08:15;;;;;;;9.60;2.88;;;25.30;96.80;;;;;;5108789;28;20030;-73
2022/04/08 14:11:19;;;;;;;8.98;2.72;;;26.60;95.50;;;;;;5112452;28;20034;-65
2022/04/08 14:14:23;;;;;;;11.32;3.03;;;27.50;94.30;;;;;;5111424;28;20050;-73
2022/04/08 14:17:27;;;;;;;13.82;3.33;;;27.40;93.70;;;;;;5107691;28;20039;-73
2022/04/08 14:20:32;;;;;;;8.88;2.30;;;27.40;94.20;;;;;;5109142;28;20038;-73
2022/04/08 14:23:36;;;;;;;9.43;2.65;;;27.40;93.30;;;;;;5105733;28;20047;-74
2022/04/08 14:26:42;;;;;;;10.05;2.17;;;27.30;94.00;;;;;;5108403;28;20035;-73
2022/04/08 14:29:46;;;;;;;11.80;3.78;;;26.40;93.60;;;;;;5101365;28;20042;-73
2022/04/08 14:32:51;;;;;;;6.22;2.22;;;25.90;94.50;;;;;;5100531;28;20043;-73
2022/04/08 14:35:54;;;;;;;7.88;2.70;;;24.70;95.20;;;;;;5104055;28;20157;-73
2022/04/08 14:38:59;;;;;;;10.73;2.22;;;24.20;96.10;;;;;;5107104;28;20047;-73
2022/04/08 14:42:05;;;;;;;10.50;4.18;;;24.90;96.00;;;;;;5109185;28;20050;-73
2022/04/08 14:45:09;;;;;;;8.35;1.90;;;24.90;95.40;;;;;;5106216;28;20050;-73
2022/04/08 14:48:13;;;;;;;7.15;2.00;;;24.80;95.00;;;;;;5095233;28;20497;-73
2022/04/08 14:51:18;;;;;;;5.57;1.50;;;24.00;95.30;;;;;;5105115;28;20046;-73
2022/04/08 14:54:23;;;;;;;6.50;1.80;;;22.50;95.90;;;;;;5104961;28;20058;-73
2022/04/08 14:57:28;;;;;;;6.75;2.15;;;22.30;97.90;;;;;;5102721;28;20081;-73
2022/04/08 15:00:31;;;;;;;8.50;2.50;;;22.60;97.40;;;;;;5100335;28;20047;-73
2022/04/08 15:03:36;;;;;;;12.00;4.15;;;22.60;98.10;;;;;;5105828;28;20082;-74
2022/04/08 15:06:40;;;;;;;8.95;2.30;;;22.60;98.40;;;;;;5109833;28;20049;-73
2022/04/08 15:09:43;;;;;;;10.45;2.67;;;21.80;98.90;;;;;;5112027;28;20067;-74
2022/04/08 15:12:47;;;;;;;11.55;2.40;;;21.50;98.60;;;;;;5092490;28;20501;-73
2022/04/08 15:15:51;;;;;;;12.13;2.67;;;21.70;99.50;;;;;;5103357;28;20390;-73
2022/04/08 15:18:55;;;;;;;8.63;2.08;;;21.70;99.80;;;;;;5112258;28;20053;-73
2022/04/08 15:21:59;;;;;;;13.32;2.63;;;22.00;99.90;;;;;;5112969;28;20051;-73
2022/04/08 15:25:04;;;;;;;8.75;2.00;;;22.20;99.90;;;;;;5112934;28;20505;-74
2022/04/08 15:28:08;;;;;;;10.30;1.90;;;22.20;97.90;;;;;;5111846;28;20054;-74
2022/04/08 15:31:12;;;;;;;6.28;1.80;;;22.10;98.70;;;;;;5112845;28;20391;-73
2022/04/08 15:34:16;;;;;;;4.80;1.15;;;21.80;98.20;;;;;;5112152;28;20046;-73
2022/04/08 15:37:20;;;;;;;7.10;1.27;;;21.60;97.30;;;;;;5112041;28;20497;-72
2022/04/08 15:40:26;;;;;;;10.05;2.17;;;21.80;97.60;;;;;;5112738;28;20050;-73
2022/04/08 15:43:30;;;;;;;8.05;1.23;;;21.90;97.80;;;;;;5112354;28;20047;-74
2022/04/08 15:46:35;;;;;;;5.70;1.60;;;21.70;96.70;;;;;;5111824;28;20054;-72
2022/04/08 15:49:39;;;;;;;6.05;1.75;;;21.30;98.30;;;;;;5111876;28;20485;-73
2022/04/08 15:52:43;;;;;;;7.13;2.20;;;21.70;98.40;;;;;;5111979;28;20477;-73
2022/04/08 15:55:50;;;;;;;9.68;1.67;;;21.70;98.40;;;;;;5111110;28;20038;-73